createdAt,value
2022-08-17T00:01:27.173Z,99.90
2022-08-17T00:03:54.687Z,99.90
2022-08-17T00:06:24.939Z,99.90
2022-08-17T00:08:58.028Z,99.90
2022-08-17T00:11:33.533Z,99.90
2022-08-17T00:14:08.184Z,99.90
2022-08-17T00:16:56.199Z,99.90
2022-08-17T00:19:25.457Z,99.90
2022-08-17T00:22:28.751Z,99.90
2022-08-17T00:24:42.901Z,99.90
2022-08-17T00:27:10.567Z,99.90
2022-08-17T00:29:37.329Z,99.90
2022-08-17T00:33:22.893Z,99.90
2022-08-17T00:34:51.121Z,99.90
2022-08-17T00:37:17.801Z,99.90
2022-08-17T00:39:44.460Z,99.90
2022-08-17T00:42:16.656Z,99.90
2022-08-17T00:44:43.254Z,99.90
2022-08-17T00:47:09.912Z,99.90
2022-08-17T00:49:36.529Z,99.90
2022-08-17T00:52:10.871Z,99.90
2022-08-17T00:54:42.311Z,99.90
2022-08-17T00:57:13.827Z,99.90
2022-08-17T01:00:01.599Z,99.90
2022-08-17T01:02:41.736Z,99.90
2022-08-17T01:05:23.565Z,99.90
2022-08-17T01:07:52.429Z,99.90
2022-08-17T01:10:59.361Z,99.90
2022-08-17T01:13:11.154Z,99.90
2022-08-17T01:15:46.073Z,99.90
2022-08-17T01:18:13.585Z,99.90
2022-08-17T01:20:48.592Z,99.90
2022-08-17T01:23:20.572Z,99.90
2022-08-17T01:25:54.513Z,99.90
2022-08-17T01:28:33.316Z,99.90
2022-08-17T01:31:09.722Z,99.90
2022-08-17T01:33:37.094Z,99.90
2022-08-17T01:36:06.813Z,99.90
2022-08-17T01:38:35.358Z,99.90
2022-08-17T01:41:11.918Z,99.90
2022-08-17T01:43:53.809Z,99.90
2022-08-17T01:46:24.862Z,99.90
2022-08-17T01:48:51.581Z,99.90
2022-08-17T01:51:19.728Z,99.90
2022-08-17T01:53:51.757Z,99.90
2022-08-17T01:56:22.817Z,99.90
2022-08-17T01:58:50.056Z,99.90
2022-08-17T02:01:23.167Z,99.90
2022-08-17T02:03:56.244Z,99.90
2022-08-17T02:06:29.586Z,99.90
2022-08-17T02:09:03.245Z,99.90
2022-08-17T02:11:32.692Z,99.90
2022-08-17T02:14:03.753Z,99.90
2022-08-17T02:16:37.601Z,99.90
2022-08-17T02:19:07.430Z,99.90
2022-08-17T02:21:34.946Z,99.90
2022-08-17T02:24:03.067Z,99.90
2022-08-17T02:26:29.947Z,99.90
2022-08-17T02:28:56.719Z,99.90
2022-08-17T02:31:23.376Z,99.90
2022-08-17T02:34:00.342Z,99.90
2022-08-17T02:36:31.085Z,99.90
2022-08-17T02:38:58.516Z,99.90
2022-08-17T02:41:25.329Z,99.90
2022-08-17T02:43:53.145Z,99.90
2022-08-17T02:46:19.839Z,99.90
2022-08-17T02:48:46.918Z,99.90
2022-08-17T02:51:13.937Z,99.90
2022-08-17T02:53:40.733Z,99.90
2022-08-17T02:56:07.423Z,99.90
2022-08-17T02:58:34.806Z,99.90
2022-08-17T03:01:06.508Z,99.90
2022-08-17T03:03:34.087Z,99.90
2022-08-17T03:06:01.130Z,99.90
2022-08-17T03:08:27.778Z,99.90
2022-08-17T03:10:54.402Z,99.90
2022-08-17T03:13:21.054Z,99.90
2022-08-17T03:15:48.621Z,99.90
2022-08-17T03:18:24.167Z,99.90
2022-08-17T03:20:53.284Z,99.90
2022-08-17T03:23:23.853Z,99.90
2022-08-17T03:25:53.341Z,99.90
2022-08-17T03:28:21.657Z,99.90
2022-08-17T03:30:49.063Z,99.90
2022-08-17T03:33:16.141Z,99.90
2022-08-17T03:35:43.222Z,99.90
2022-08-17T03:38:11.586Z,99.90
2022-08-17T03:40:56.437Z,99.90
2022-08-17T03:43:26.580Z,99.90
2022-08-17T03:46:34.203Z,99.90
2022-08-17T03:49:17.302Z,99.90
2022-08-17T03:52:02.645Z,99.90
2022-08-17T03:54:48.048Z,99.90
2022-08-17T03:57:14.774Z,99.90
2022-08-17T03:59:41.618Z,99.90
2022-08-17T04:02:11.334Z,99.90
2022-08-17T04:04:39.157Z,99.90
2022-08-17T04:07:06.246Z,99.90
2022-08-17T04:09:32.977Z,99.90
2022-08-17T04:12:02.325Z,99.90
2022-08-17T04:14:37.840Z,99.90
2022-08-17T04:17:19.602Z,99.90
2022-08-17T04:19:46.907Z,99.90
2022-08-17T04:22:32.048Z,99.90
2022-08-17T04:25:17.808Z,99.90
2022-08-17T04:27:44.411Z,99.90
2022-08-17T04:30:11.995Z,99.90
2022-08-17T04:33:05.527Z,99.90
2022-08-17T04:35:42.109Z,99.90
2022-08-17T04:38:11.011Z,99.90
2022-08-17T04:40:56.323Z,99.90
2022-08-17T04:43:24.860Z,99.90
2022-08-17T04:45:56.696Z,99.90
2022-08-17T04:48:36.439Z,99.90
2022-08-17T04:51:20.521Z,99.90
2022-08-17T04:53:54.364Z,99.90
2022-08-17T04:56:22.501Z,99.90
2022-08-17T04:58:54.018Z,99.90
2022-08-17T05:01:23.977Z,99.90
2022-08-17T05:03:52.610Z,99.90
2022-08-17T05:06:19.245Z,99.90
2022-08-17T05:08:45.925Z,99.90
2022-08-17T05:11:12.531Z,99.90
2022-08-17T05:13:39.145Z,99.90
2022-08-17T05:16:07.023Z,99.90
2022-08-17T05:18:33.705Z,99.90
2022-08-17T05:21:00.475Z,99.90
2022-08-17T05:23:41.902Z,99.90
2022-08-17T05:26:20.416Z,99.90
2022-08-17T05:28:55.038Z,99.90
2022-08-17T05:31:24.057Z,99.90
2022-08-17T05:33:50.825Z,99.90
2022-08-17T05:36:41.611Z,99.90
2022-08-17T05:39:04.090Z,99.90
2022-08-17T05:41:30.691Z,99.90
2022-08-17T05:43:57.317Z,99.90
2022-08-17T05:46:27.961Z,99.90
2022-08-17T05:49:05.478Z,99.90
2022-08-17T05:51:48.154Z,99.90
2022-08-17T05:54:21.196Z,99.90
2022-08-17T05:57:07.720Z,99.90
2022-08-17T05:59:52.460Z,99.90
2022-08-17T06:02:45.558Z,99.90
2022-08-17T06:05:35.970Z,99.90
2022-08-17T06:08:20.507Z,99.90
2022-08-17T06:11:11.413Z,99.90
2022-08-17T06:13:56.364Z,99.90
2022-08-17T06:16:33.360Z,99.90
2022-08-17T06:19:26.920Z,99.90
2022-08-17T06:21:55.025Z,99.90
2022-08-17T06:24:51.322Z,99.90
2022-08-17T06:27:41.405Z,99.90
2022-08-17T06:30:15.669Z,99.90
2022-08-17T06:32:45.049Z,99.90
2022-08-17T06:35:15.413Z,99.90
2022-08-17T06:37:57.814Z,99.90
2022-08-17T06:40:45.442Z,99.90
2022-08-17T06:43:32.611Z,99.90
2022-08-17T06:46:21.508Z,99.90
2022-08-17T06:49:11.523Z,99.90
2022-08-17T06:51:43.216Z,99.90
2022-08-17T06:54:32.605Z,99.90
2022-08-17T06:57:14.715Z,99.90
2022-08-17T06:59:56.207Z,99.90
2022-08-17T07:02:53.231Z,99.90
2022-08-17T07:05:24.111Z,99.90
2022-08-17T07:08:03.683Z,99.90
2022-08-17T07:10:37.832Z,99.90
2022-08-17T07:13:25.313Z,99.90
2022-08-17T07:15:59.681Z,99.90
2022-08-17T07:18:29.597Z,99.90
2022-08-17T07:21:08.319Z,99.90
2022-08-17T07:24:04.302Z,99.90
2022-08-17T07:26:31.008Z,99.90
2022-08-17T07:28:59.599Z,99.90
2022-08-17T07:31:28.576Z,99.90
2022-08-17T07:34:14.442Z,99.90
2022-08-17T07:36:42.396Z,99.90
2022-08-17T07:39:10.219Z,99.90
2022-08-17T07:41:53.417Z,99.90
2022-08-17T07:44:25.712Z,99.90
2022-08-17T07:47:12.321Z,99.90
2022-08-17T07:49:41.886Z,99.90
2022-08-17T07:52:24.937Z,99.90
2022-08-17T07:54:57.157Z,99.90
2022-08-17T07:57:32.462Z,99.90
2022-08-17T08:00:02.089Z,99.90
2022-08-17T08:02:40.289Z,99.90
2022-08-17T08:05:48.833Z,99.90
2022-08-17T08:08:32.674Z,99.90
2022-08-17T08:11:08.829Z,99.90
2022-08-17T08:13:42.401Z,99.90
2022-08-17T08:16:19.815Z,99.90
2022-08-17T08:18:54.750Z,99.90
2022-08-17T08:21:46.361Z,99.90
2022-08-17T08:24:22.177Z,99.90
2022-08-17T08:27:22.968Z,99.90
2022-08-17T08:30:00.370Z,99.90
2022-08-17T08:33:07.542Z,99.90
2022-08-17T08:35:40.389Z,99.90
2022-08-17T08:38:34.812Z,99.90
2022-08-17T08:41:16.748Z,99.90
2022-08-17T08:44:05.935Z,99.90
2022-08-17T08:46:51.456Z,99.90
2022-08-17T08:50:04.109Z,99.90
2022-08-17T08:53:04.692Z,99.90
2022-08-17T08:55:53.571Z,99.90
2022-08-17T08:58:41.904Z,99.90
2022-08-17T09:01:32.603Z,99.90
2022-08-17T09:05:02.662Z,99.90
2022-08-17T09:07:32.452Z,99.90
2022-08-17T09:10:33.609Z,99.90
2022-08-17T09:13:05.945Z,99.90
2022-08-17T09:15:50.364Z,99.90
2022-08-17T09:18:59.955Z,99.90
2022-08-17T09:21:13.420Z,99.90
2022-08-17T09:23:46.337Z,99.90
2022-08-17T09:26:26.663Z,99.90
2022-08-17T09:29:01.424Z,99.90
2022-08-17T09:31:49.381Z,99.90
2022-08-17T09:34:22.134Z,99.90
2022-08-17T09:37:21.603Z,99.90
2022-08-17T09:40:21.120Z,99.90
2022-08-17T09:42:54.195Z,99.90
2022-08-17T09:45:30.253Z,99.90
2022-08-17T09:48:18.293Z,99.90
2022-08-17T09:51:16.931Z,99.90
2022-08-17T09:53:44.872Z,99.90
2022-08-17T09:56:33.162Z,99.90
2022-08-17T09:59:32.115Z,99.90
2022-08-17T10:02:20.074Z,99.90
2022-08-17T10:05:13.498Z,99.90
2022-08-17T10:07:47.864Z,99.90
2022-08-17T10:10:41.867Z,99.90
2022-08-17T10:13:35.960Z,99.90
2022-08-17T10:16:22.550Z,99.90
2022-08-17T10:19:22.628Z,99.90
2022-08-17T10:22:32.674Z,99.90
2022-08-17T10:25:22.066Z,99.90
2022-08-17T10:27:55.215Z,99.90
2022-08-17T10:30:27.364Z,99.90
2022-08-17T10:33:04.145Z,99.90
2022-08-17T10:35:36.592Z,99.90
2022-08-17T10:38:06.612Z,99.90
2022-08-17T10:40:50.293Z,99.90
2022-08-17T10:43:44.704Z,99.90
2022-08-17T10:46:46.451Z,99.90
2022-08-17T10:49:21.930Z,99.90
2022-08-17T10:51:53.484Z,99.90
2022-08-17T10:54:47.948Z,99.90
2022-08-17T10:57:26.695Z,99.90
2022-08-17T10:59:55.759Z,99.90
2022-08-17T11:02:27.419Z,99.90
2022-08-17T11:05:14.121Z,99.90
2022-08-17T11:08:15.429Z,99.90
2022-08-17T11:10:54.669Z,99.90
2022-08-17T11:13:33.590Z,99.90
2022-08-17T11:16:28.143Z,99.90
2022-08-17T11:19:17.768Z,99.90
2022-08-17T11:22:02.908Z,99.90
2022-08-17T11:24:39.830Z,99.90
2022-08-17T11:27:21.859Z,99.90
2022-08-17T11:29:59.484Z,99.90
2022-08-17T11:32:37.347Z,99.90
2022-08-17T11:35:06.923Z,99.90
2022-08-17T11:38:05.404Z,99.90
2022-08-17T11:40:59.950Z,99.90
2022-08-17T11:44:01.972Z,99.90
2022-08-17T11:46:56.421Z,99.90
2022-08-17T11:50:12.577Z,99.90
2022-08-17T11:52:47.111Z,99.90
2022-08-17T11:55:35.772Z,99.90
2022-08-17T11:58:24.923Z,99.90
2022-08-17T12:00:57.064Z,99.90
2022-08-17T12:03:36.784Z,99.90
2022-08-17T12:06:30.372Z,99.90
2022-08-17T12:09:16.210Z,99.90
2022-08-17T12:11:55.381Z,99.90
2022-08-17T12:15:07.874Z,99.90
2022-08-17T12:17:52.057Z,99.90
2022-08-17T12:20:26.155Z,99.90
2022-08-17T12:23:00.914Z,99.90
2022-08-17T12:26:11.673Z,99.90
2022-08-17T12:28:43.877Z,99.90
2022-08-17T12:31:43.115Z,99.90
2022-08-17T12:34:16.921Z,99.90
2022-08-17T12:36:43.746Z,99.90
2022-08-17T12:39:13.935Z,99.90
2022-08-17T12:41:43.813Z,99.90
2022-08-17T12:44:17.646Z,99.90
2022-08-17T12:46:55.354Z,99.90
2022-08-17T12:49:27.362Z,99.90
2022-08-17T12:52:09.806Z,99.90
2022-08-17T12:54:41.604Z,99.90
2022-08-17T12:57:16.583Z,99.90
2022-08-17T12:59:48.754Z,99.90
2022-08-17T13:02:24.259Z,99.90
2022-08-17T13:04:50.903Z,99.90
2022-08-17T13:07:36.355Z,99.90
2022-08-17T13:10:03.999Z,99.90
2022-08-17T13:12:33.603Z,99.90
2022-08-17T13:15:00.837Z,99.90
2022-08-17T13:17:34.769Z,99.90
2022-08-17T13:22:32.382Z,99.90
2022-08-17T13:25:05.246Z,99.90
2022-08-17T13:27:33.034Z,99.90
2022-08-17T13:32:36.061Z,99.90
2022-08-17T13:35:29.663Z,99.90
2022-08-17T13:38:06.471Z,99.90
2022-08-17T13:40:41.571Z,99.90
2022-08-17T13:43:09.313Z,99.90
2022-08-17T13:45:44.819Z,99.90
2022-08-17T13:48:24.852Z,99.90
2022-08-17T13:50:57.295Z,99.90
2022-08-17T13:53:37.211Z,99.90
2022-08-17T13:56:37.503Z,99.90
2022-08-17T13:59:04.813Z,99.90
2022-08-17T14:01:38.237Z,99.90
2022-08-17T14:04:27.894Z,99.90
2022-08-17T14:07:33.885Z,99.90
2022-08-17T14:10:09.787Z,99.90
2022-08-17T14:12:39.792Z,99.90
2022-08-17T14:15:07.745Z,99.90
2022-08-17T14:17:38.680Z,99.90
2022-08-17T14:20:09.226Z,99.90
2022-08-17T14:22:39.110Z,99.90
2022-08-17T14:25:08.542Z,99.90
2022-08-17T14:27:51.716Z,99.90
2022-08-17T14:30:24.483Z,99.80
2022-08-17T14:32:51.934Z,99.90
2022-08-17T14:35:22.165Z,99.80
2022-08-17T14:37:49.670Z,98.70
2022-08-17T14:40:20.649Z,99.60
2022-08-17T14:42:48.031Z,99.90
2022-08-17T14:45:31.946Z,99.90
2022-08-17T14:48:01.421Z,99.90
2022-08-17T14:50:27.995Z,99.70
2022-08-17T14:52:56.566Z,99.90
2022-08-17T14:55:24.813Z,99.40
2022-08-17T14:57:51.591Z,98.80
2022-08-17T15:00:18.505Z,98.00
2022-08-17T15:02:45.603Z,97.30
2022-08-17T15:05:15.351Z,97.80
2022-08-17T15:07:44.385Z,99.80
2022-08-17T15:10:12.954Z,98.80
2022-08-17T15:12:40.751Z,99.10
2022-08-17T15:15:11.004Z,99.90
2022-08-17T15:17:44.578Z,99.90
2022-08-17T15:20:18.251Z,99.90
2022-08-17T15:22:46.870Z,99.90
2022-08-17T15:25:14.166Z,99.90
2022-08-17T15:27:41.448Z,99.90
2022-08-17T15:30:09.766Z,99.90
2022-08-17T15:32:38.982Z,99.90
2022-08-17T15:35:08.759Z,99.90
2022-08-17T15:37:36.296Z,99.90
2022-08-17T15:40:03.790Z,99.90
2022-08-17T15:42:30.586Z,99.90
2022-08-17T15:44:57.541Z,99.90
2022-08-17T15:47:24.592Z,99.90
2022-08-17T15:49:54.430Z,99.90
2022-08-17T15:52:26.752Z,99.90
2022-08-17T15:54:56.974Z,99.90
2022-08-17T15:57:25.118Z,99.90
2022-08-17T15:59:55.079Z,99.90
2022-08-17T16:03:15.422Z,99.90
2022-08-17T16:05:21.933Z,99.90
2022-08-17T16:07:52.278Z,99.90
2022-08-17T16:10:19.635Z,99.90
2022-08-17T16:12:48.956Z,99.90
2022-08-17T16:15:17.159Z,99.90
2022-08-17T16:17:43.814Z,99.90
2022-08-17T16:20:20.626Z,99.90
2022-08-17T16:22:49.124Z,99.90
2022-08-17T16:25:22.372Z,99.90
2022-08-17T16:27:53.268Z,99.90
2022-08-17T16:30:22.709Z,99.90
2022-08-17T16:32:51.705Z,99.90
2022-08-17T16:35:21.918Z,99.90
2022-08-17T16:37:48.800Z,99.90
2022-08-17T16:40:17.302Z,99.90
2022-08-17T16:42:48.313Z,99.90
2022-08-17T17:02:49.543Z,99.90
2022-08-17T17:05:44.507Z,99.90
2022-08-17T17:08:26.425Z,99.90
2022-08-17T17:10:56.202Z,99.90
2022-08-17T17:13:34.902Z,99.90
2022-08-17T17:16:20.726Z,99.90
2022-08-17T17:18:50.545Z,99.90
2022-08-17T17:21:24.407Z,99.90
2022-08-17T17:23:59.379Z,99.90
2022-08-17T17:26:48.766Z,99.90
2022-08-17T17:29:47.339Z,99.90
2022-08-17T17:32:37.935Z,99.90
2022-08-17T17:35:14.510Z,99.90
2022-08-17T17:37:44.078Z,99.90
2022-08-17T17:40:24.114Z,99.90
2022-08-17T17:42:55.213Z,99.90
2022-08-17T17:45:26.555Z,99.90
2022-08-17T17:47:53.479Z,99.90
2022-08-17T17:50:28.887Z,99.90
2022-08-17T17:53:04.850Z,99.90
2022-08-17T17:55:47.034Z,99.90
2022-08-17T17:58:27.254Z,99.90
2022-08-17T18:01:15.795Z,99.90
2022-08-17T18:03:51.878Z,99.90
2022-08-17T18:06:36.787Z,99.90
2022-08-17T18:09:25.729Z,99.90
2022-08-17T18:12:10.804Z,99.90
2022-08-17T18:15:08.170Z,99.90
2022-08-17T18:17:36.142Z,99.90
2022-08-17T18:20:04.652Z,99.90
2022-08-17T18:22:31.836Z,99.90
2022-08-17T18:24:58.826Z,99.90
2022-08-17T18:27:33.211Z,99.90
2022-08-17T18:30:07.260Z,99.90
2022-08-17T18:32:38.339Z,99.90
2022-08-17T18:35:10.906Z,99.90
2022-08-17T18:37:49.318Z,99.90
2022-08-17T18:40:21.506Z,99.90
2022-08-17T18:43:00.550Z,99.90
2022-08-17T18:45:48.861Z,99.90
2022-08-17T18:48:48.406Z,99.90
2022-08-17T18:51:40.596Z,99.90
2022-08-17T18:54:24.083Z,99.90
2022-08-17T18:57:01.935Z,99.90
2022-08-17T18:59:44.529Z,99.90
2022-08-17T19:02:22.046Z,99.90
2022-08-17T19:05:07.179Z,99.90
2022-08-17T19:07:38.116Z,99.90
2022-08-17T19:10:16.607Z,99.90
2022-08-17T19:13:01.505Z,99.90
2022-08-17T19:15:33.921Z,99.90
2022-08-17T19:18:02.427Z,99.90
2022-08-17T19:20:41.325Z,99.90
2022-08-17T19:23:29.028Z,99.90
2022-08-17T19:25:59.132Z,99.90
2022-08-17T19:28:44.986Z,99.90
2022-08-17T19:31:22.047Z,99.90
2022-08-17T19:33:49.130Z,99.90
2022-08-17T19:36:21.794Z,99.90
2022-08-17T19:39:05.602Z,99.90
2022-08-17T19:41:52.138Z,99.90
2022-08-17T19:44:32.131Z,99.90
2022-08-17T19:47:17.232Z,99.90
2022-08-17T19:50:12.037Z,99.90
2022-08-17T19:52:48.889Z,99.90
2022-08-17T19:55:26.097Z,99.90
2022-08-17T19:58:03.383Z,99.90
2022-08-17T20:00:31.628Z,99.90
2022-08-17T20:03:16.694Z,99.90
2022-08-17T20:06:11.614Z,99.90
2022-08-17T20:08:55.249Z,99.90
2022-08-17T20:11:48.935Z,99.90
2022-08-17T20:14:20.920Z,99.90
2022-08-17T20:16:48.038Z,99.90
2022-08-17T20:19:20.376Z,99.90
2022-08-17T20:22:46.100Z,99.90
2022-08-17T20:25:30.908Z,99.90
2022-08-17T20:28:05.828Z,99.90
2022-08-17T20:30:39.333Z,99.90
2022-08-17T20:33:21.941Z,99.90
2022-08-17T20:36:14.271Z,99.90
2022-08-17T20:38:42.719Z,99.90
2022-08-17T20:41:22.357Z,99.90
2022-08-17T20:43:58.823Z,99.90
2022-08-17T20:46:34.313Z,99.90
2022-08-17T20:49:16.354Z,99.90
2022-08-17T20:52:10.090Z,99.90
2022-08-17T20:54:57.118Z,99.90
2022-08-17T20:57:32.878Z,99.90
2022-08-17T22:44:31.894Z,99.90
2022-08-17T22:46:58.821Z,99.90
2022-08-17T22:49:33.001Z,99.90
2022-08-17T22:52:03.239Z,99.90
2022-08-17T22:54:49.475Z,99.90
2022-08-17T22:57:35.913Z,99.90
2022-08-17T23:00:03.082Z,99.90
2022-08-17T23:02:36.108Z,99.90
2022-08-17T23:05:21.436Z,99.90
2022-08-17T23:07:52.665Z,99.90
2022-08-17T23:10:19.454Z,99.90
2022-08-17T23:12:46.441Z,99.90
2022-08-17T23:15:17.989Z,99.90
2022-08-17T23:17:45.477Z,99.90
2022-08-17T23:20:14.073Z,99.90
2022-08-17T23:22:51.776Z,99.90
2022-08-17T23:25:26.296Z,99.90
2022-08-17T23:27:53.279Z,99.90
2022-08-17T23:30:20.371Z,99.90
2022-08-17T23:32:53.715Z,99.90
2022-08-17T23:35:21.035Z,99.90
2022-08-17T23:38:11.409Z,99.90
2022-08-17T23:40:39.766Z,99.90
2022-08-17T23:43:23.991Z,99.90
2022-08-17T23:45:53.750Z,99.90
2022-08-17T23:48:36.270Z,99.90
2022-08-17T23:51:18.866Z,99.90
2022-08-17T23:53:48.425Z,99.90
2022-08-17T23:56:15.692Z,99.90
2022-08-17T23:58:44.668Z,99.90
